Time;durP1;ratioP1;P1;durP2;ratioP2;P2;SDS_P1;SDS_P2;PMS_P1;PMS_P2;Temp;Humidity;BMP_temperature;BMP_pressure;BME280_temperature;BME280_humidity;BME280_pressure;Samples;Min_cycle;Max_cycle;Signal;HPM_P1;HPM_P2
2023/10/31 00:01:40;;;;;;;;;50.75;42.25;;;;;;;;6488971;39;8865;-63
2023/10/31 00:07:42;;;;;;;;;48.50;41.25;;;;;;;;6490324;39;8873;-63
2023/10/31 00:13:48;;;;;;;;;55.25;47.50;;;;;;;;6490011;46;8912;-63
2023/10/31 00:19:50;;;;;;;;;53.75;44.00;;;;;;;;6489282;46;8893;-62
2023/10/31 00:25:53;;;;;;;;;48.25;41.00;;;;;;;;6489074;39;8873;-63
2023/10/31 00:31:55;;;;;;;;;54.00;43.50;;;;;;;;6489811;39;8865;-64
2023/10/31 00:37:57;;;;;;;;;41.00;36.00;;;;;;;;6489835;39;8862;-62
2023/10/31 00:44:01;;;;;;;;;50.75;41.75;;;;;;;;6489328;39;8891;-61
2023/10/31 00:50:13;;;;;;;;;50.25;40.50;;;;;;;;6488808;46;8953;-64
2023/10/31 00:56:17;;;;;;;;;47.00;41.25;;;;;;;;6488788;46;8861;-63
2023/10/31 01:02:23;;;;;;;;;47.75;40.75;;;;;;;;6488267;39;8976;-63
2023/10/31 01:08:27;;;;;;;;;49.25;38.50;;;;;;;;6488019;39;9967;-62
2023/10/31 01:14:38;;;;;;;;;42.50;36.75;;;;;;;;6488881;39;8890;-63
2023/10/31 01:20:40;;;;;;;;;47.75;39.00;;;;;;;;6488809;31;8935;-63
2023/10/31 01:26:50;;;;;;;;;36.50;34.00;;;;;;;;6488973;46;8898;-63
2023/10/31 01:32:54;;;;;;;;;41.50;36.50;;;;;;;;6408968;36;5001475;-63
2023/10/31 01:38:58;;;;;;;;;40.25;38.00;;;;;;;;6488865;46;8941;-64
2023/10/31 01:45:03;;;;;;;;;47.25;39.75;;;;;;;;6489153;39;8884;-64
2023/10/31 01:51:07;;;;;;;;;46.75;38.50;;;;;;;;6488366;39;8933;-64
2023/10/31 05:06:24;;;;;;;;;52.25;44.50;;;;;;;;6471170;39;9003;-65
2023/10/31 05:12:27;;;;;;;;;65.50;53.75;;;;;;;;6493307;39;8853;-63
2023/10/31 05:18:29;;;;;;;;;70.50;58.50;;;;;;;;6492321;46;9040;-64
2023/10/31 05:24:32;;;;;;;;;71.75;55.75;;;;;;;;6492511;39;8921;-64
2023/10/31 05:30:34;;;;;;;;;62.75;52.00;;;;;;;;6491811;39;8977;-63
2023/10/31 05:36:36;;;;;;;;;63.50;50.75;;;;;;;;6488116;46;8902;-63
2023/10/31 05:42:39;;;;;;;;;62.50;50.50;;;;;;;;6489823;39;8920;-63
2023/10/31 05:48:45;;;;;;;;;55.25;43.50;;;;;;;;6489489;39;8940;-63
2023/10/31 05:54:48;;;;;;;;;51.75;41.75;;;;;;;;6490738;39;8931;-64
2023/10/31 06:00:50;;;;;;;;;53.00;44.50;;;;;;;;6489797;39;8904;-63
2023/10/31 06:06:53;;;;;;;;;58.00;45.00;;;;;;;;6490621;39;8911;-65
2023/10/31 06:12:55;;;;;;;;;59.00;46.00;;;;;;;;6490172;46;8971;-63
2023/10/31 06:18:58;;;;;;;;;55.50;46.00;;;;;;;;6489100;46;8846;-63
2023/10/31 06:25:01;;;;;;;;;54.25;42.00;;;;;;;;6489505;46;8827;-63
2023/10/31 06:31:03;;;;;;;;;47.25;38.00;;;;;;;;6488737;39;8878;-65
2023/10/31 06:37:07;;;;;;;;;49.50;43.00;;;;;;;;6487628;39;8867;-64
2023/10/31 06:43:20;;;;;;;;;43.25;37.00;;;;;;;;6489126;39;8922;-65
2023/10/31 06:49:23;;;;;;;;;48.00;40.50;;;;;;;;6487409;39;8955;-63
2023/10/31 06:55:26;;;;;;;;;55.75;44.25;;;;;;;;6488230;39;8988;-63
2023/10/31 07:01:28;;;;;;;;;51.75;42.00;;;;;;;;6490191;39;8947;-64
2023/10/31 07:07:34;;;;;;;;;48.75;42.00;;;;;;;;6489202;46;8839;-63
2023/10/31 07:13:38;;;;;;;;;52.00;41.75;;;;;;;;6488948;39;8850;-63
2023/10/31 07:19:40;;;;;;;;;45.33;38.00;;;;;;;;6488738;39;9522;-63
2023/10/31 07:25:46;;;;;;;;;44.00;37.00;;;;;;;;6489590;46;8894;-65
2023/10/31 07:31:49;;;;;;;;;46.00;38.50;;;;;;;;6489235;31;8920;-63
2023/10/31 07:37:54;;;;;;;;;43.33;37.33;;;;;;;;6489723;31;9542;-64
2023/10/31 07:43:56;;;;;;;;;50.33;42.33;;;;;;;;6488894;39;8975;-64
2023/10/31 07:49:59;;;;;;;;;43.67;36.00;;;;;;;;6487434;46;8927;-64
2023/10/31 07:56:02;;;;;;;;;47.00;38.33;;;;;;;;6489481;39;8865;-67
2023/10/31 08:02:05;;;;;;;;;47.00;37.67;;;;;;;;6488939;39;9716;-64
2023/10/31 08:08:08;;;;;;;;;41.67;36.33;;;;;;;;6487618;39;8947;-63
2023/10/31 08:14:10;;;;;;;;;46.00;38.00;;;;;;;;6488190;39;8950;-65
2023/10/31 08:20:14;;;;;;;;;54.67;45.33;;;;;;;;6488110;31;8942;-64
2023/10/31 08:26:17;;;;;;;;;47.33;39.67;;;;;;;;6487595;46;8898;-64
2023/10/31 08:32:22;;;;;;;;;48.00;39.33;;;;;;;;6486616;31;8891;-66
2023/10/31 08:38:28;;;;;;;;;44.00;36.33;;;;;;;;6486188;39;8917;-65
2023/10/31 08:44:34;;;;;;;;;39.67;34.00;;;;;;;;6487594;39;8944;-67
2023/10/31 08:50:37;;;;;;;;;38.33;35.00;;;;;;;;6486656;31;9085;-65
2023/10/31 08:56:41;;;;;;;;;37.67;34.33;;;;;;;;6486470;39;9053;-66
2023/10/31 09:02:44;;;;;;;;;34.33;32.00;;;;;;;;6486154;31;8967;-64
2023/10/31 09:08:50;;;;;;;;;31.33;29.33;;;;;;;;6487400;39;8940;-66
2023/10/31 09:15:05;;;;;;;;;22.00;22.00;;;;;;;;6187291;36;10008971;-65
2023/10/31 09:21:10;;;;;;;;;28.33;25.67;;;;;;;;5269541;36;10001632;-66
2023/10/31 09:27:12;;;;;;;;;12.67;12.67;;;;;;;;6484112;39;8920;-66
2023/10/31 09:33:15;;;;;;;;;29.00;26.00;;;;;;;;6484794;31;8990;-64
2023/10/31 09:39:22;;;;;;;;;23.67;21.00;;;;;;;;6486506;39;9477;-66
2023/10/31 09:45:25;;;;;;;;;29.67;27.67;;;;;;;;6484616;46;8923;-64
2023/10/31 09:51:29;;;;;;;;;26.33;25.00;;;;;;;;6486022;39;8928;-64
2023/10/31 09:57:32;;;;;;;;;27.00;26.67;;;;;;;;6482784;46;8907;-66
2023/10/31 10:03:37;;;;;;;;;26.00;24.00;;;;;;;;6483112;46;8948;-65
2023/10/31 10:09:41;;;;;;;;;27.00;25.00;;;;;;;;6482690;39;8947;-65
2023/10/31 10:15:54;;;;;;;;;31.67;27.00;;;;;;;;6482317;31;8962;-65
2023/10/31 10:21:59;;;;;;;;;25.67;25.00;;;;;;;;6484871;39;8971;-64
2023/10/31 10:28:04;;;;;;;;;24.00;22.00;;;;;;;;6482368;31;8968;-64
2023/10/31 10:34:07;;;;;;;;;21.00;18.50;;;;;;;;6481735;31;9444;-64
2023/10/31 10:40:13;;;;;;;;;21.75;21.75;;;;;;;;6480710;39;8959;-64
2023/10/31 10:46:18;;;;;;;;;19.25;19.00;;;;;;;;6482055;39;9026;-64
2023/10/31 10:52:25;;;;;;;;;15.50;13.75;;;;;;;;6483215;47;8932;-63
2023/10/31 10:58:58;;;;;;;;;20.33;19.67;;;;;;;;6485508;31;8888;-62
2023/10/31 11:05:01;;;;;;;;;23.67;22.00;;;;;;;;6482013;47;8912;-62
2023/10/31 11:11:05;;;;;;;;;16.25;16.00;;;;;;;;6482480;39;8950;-64
2023/10/31 11:17:23;;;;;;;;;22.50;21.00;;;;;;;;6483373;47;8928;-62
2023/10/31 11:23:28;;;;;;;;;21.67;21.67;;;;;;;;6483302;39;8912;-64
2023/10/31 11:29:32;;;;;;;;;27.25;24.00;;;;;;;;6482900;47;9036;-63
2023/10/31 11:35:39;;;;;;;;;19.50;18.50;;;;;;;;6482161;47;8983;-62
2023/10/31 11:41:50;;;;;;;;;22.25;16.50;;;;;;;;6483532;47;9047;-65
2023/10/31 11:47:55;;;;;;;;;15.33;15.33;;;;;;;;6483699;31;8951;-64
2023/10/31 11:54:02;;;;;;;;;16.75;14.00;;;;;;;;6483719;39;8933;-63
2023/10/31 12:00:07;;;;;;;;;18.33;16.33;;;;;;;;6483695;39;9074;-63
2023/10/31 12:06:17;;;;;;;;;18.75;18.50;;;;;;;;6484699;46;9039;-62
2023/10/31 12:12:31;;;;;;;;;20.25;18.50;;;;;;;;6484523;39;9070;-64
2023/10/31 12:18:35;;;;;;;;;23.50;21.50;;;;;;;;6484570;39;8951;-62
2023/10/31 12:24:38;;;;;;;;;23.00;22.40;;;;;;;;6321030;31;10002474;-63
2023/10/31 12:30:46;;;;;;;;;20.25;19.25;;;;;;;;6482956;39;8920;-62
2023/10/31 12:36:51;;;;;;;;;17.00;15.75;;;;;;;;6484014;39;9139;-62
2023/10/31 12:42:56;;;;;;;;;20.00;18.50;;;;;;;;6486252;39;8949;-63
2023/10/31 12:48:58;;;;;;;;;21.00;19.75;;;;;;;;6484084;31;8918;-65
2023/10/31 12:55:12;;;;;;;;;16.00;14.75;;;;;;;;6486429;39;9024;-63
2023/10/31 13:01:19;;;;;;;;;12.25;11.75;;;;;;;;6483717;31;9063;-63
2023/10/31 13:07:27;;;;;;;;;19.75;16.25;;;;;;;;6485541;31;9534;-62
2023/10/31 13:13:30;;;;;;;;;13.50;13.25;;;;;;;;6484174;39;9345;-63
2023/10/31 13:19:32;;;;;;;;;15.50;15.00;;;;;;;;6484336;31;8970;-63
2023/10/31 13:25:34;;;;;;;;;19.00;17.25;;;;;;;;6482856;46;9007;-62
2023/10/31 13:31:40;;;;;;;;;18.00;18.00;;;;;;;;6484124;31;8905;-61
2023/10/31 13:37:46;;;;;;;;;15.25;15.25;;;;;;;;6483128;46;8903;-62
2023/10/31 13:43:51;;;;;;;;;16.00;14.25;;;;;;;;6484144;39;9449;-63
2023/10/31 13:49:55;;;;;;;;;18.50;18.50;;;;;;;;6483331;46;8919;-63
2023/10/31 13:56:00;;;;;;;;;25.33;24.33;;;;;;;;6484348;31;9665;-62
2023/10/31 14:02:05;;;;;;;;;23.67;21.33;;;;;;;;6481954;46;8935;-62
2023/10/31 14:08:08;;;;;;;;;24.67;24.33;;;;;;;;6483531;31;8973;-63
2023/10/31 14:14:13;;;;;;;;;26.33;22.67;;;;;;;;6481966;39;8969;-62
2023/10/31 14:20:17;;;;;;;;;26.33;25.33;;;;;;;;6483147;39;10303;-64
2023/10/31 14:26:22;;;;;;;;;24.67;22.00;;;;;;;;6483454;39;8954;-62
2023/10/31 14:32:24;;;;;;;;;22.00;19.33;;;;;;;;6484575;31;8880;-61
2023/10/31 14:38:26;;;;;;;;;24.00;23.33;;;;;;;;6483707;31;8950;-61
2023/10/31 14:44:34;;;;;;;;;31.67;28.00;;;;;;;;6486615;39;9569;-62
2023/10/31 14:50:38;;;;;;;;;27.33;27.33;;;;;;;;6486594;39;8921;-61
2023/10/31 14:56:42;;;;;;;;;24.33;24.33;;;;;;;;6485567;39;8996;-61
2023/10/31 15:02:45;;;;;;;;;34.67;31.67;;;;;;;;6486254;31;8884;-61
2023/10/31 15:08:48;;;;;;;;;29.67;29.00;;;;;;;;6486594;39;8901;-63
2023/10/31 15:14:50;;;;;;;;;25.67;25.67;;;;;;;;6485629;47;8897;-62
2023/10/31 15:20:57;;;;;;;;;33.00;30.00;;;;;;;;6486667;31;8932;-62
2023/10/31 15:27:00;;;;;;;;;35.00;32.00;;;;;;;;6486908;39;8916;-64
2023/10/31 15:33:03;;;;;;;;;32.00;28.67;;;;;;;;6486204;46;8897;-62
2023/10/31 15:39:07;;;;;;;;;30.00;29.00;;;;;;;;6487308;31;8884;-63
2023/10/31 15:45:10;;;;;;;;;28.67;25.00;;;;;;;;6485918;46;8924;-62
2023/10/31 15:51:16;;;;;;;;;26.33;24.00;;;;;;;;6486391;39;8911;-62
2023/10/31 15:57:21;;;;;;;;;30.33;28.67;;;;;;;;6485771;46;8881;-63
2023/10/31 16:03:23;;;;;;;;;33.33;29.67;;;;;;;;6486612;31;8871;-63
2023/10/31 16:09:27;;;;;;;;;33.33;30.67;;;;;;;;6487354;39;8908;-64
2023/10/31 16:15:29;;;;;;;;;38.00;35.67;;;;;;;;6487505;31;8879;-61
2023/10/31 16:21:35;;;;;;;;;37.33;35.33;;;;;;;;6488152;31;8908;-62
2023/10/31 16:27:37;;;;;;;;;49.67;39.33;;;;;;;;6487642;39;8886;-62
2023/10/31 16:33:40;;;;;;;;;35.00;33.00;;;;;;;;6488217;39;8971;-62
2023/10/31 16:39:43;;;;;;;;;47.00;39.00;;;;;;;;6490257;46;8876;-62
2023/10/31 16:45:45;;;;;;;;;41.67;36.33;;;;;;;;6489820;31;9025;-61
2023/10/31 16:51:50;;;;;;;;;46.33;37.00;;;;;;;;6490995;39;8853;-63
2023/10/31 16:57:53;;;;;;;;;36.33;34.67;;;;;;;;6491105;31;8951;-61
2023/10/31 17:03:55;;;;;;;;;36.33;32.33;;;;;;;;6490903;39;9084;-63
2023/10/31 17:09:58;;;;;;;;;37.67;34.33;;;;;;;;6490282;39;9007;-62
2023/10/31 17:16:02;;;;;;;;;41.00;35.33;;;;;;;;6490316;31;8914;-62
2023/10/31 17:22:04;;;;;;;;;27.33;27.33;;;;;;;;6489036;39;8970;-61
2023/10/31 17:28:07;;;;;;;;;38.00;33.33;;;;;;;;6488973;31;8904;-62
2023/10/31 17:34:10;;;;;;;;;38.33;33.67;;;;;;;;6490531;39;8891;-61
2023/10/31 17:40:12;;;;;;;;;48.00;39.67;;;;;;;;6489976;39;8871;-64
2023/10/31 17:46:15;;;;;;;;;42.67;36.33;;;;;;;;6489760;39;8883;-62
2023/10/31 17:52:18;;;;;;;;;44.67;39.00;;;;;;;;6490038;46;8927;-61
2023/10/31 17:58:21;;;;;;;;;43.33;38.00;;;;;;;;6490477;31;8961;-62
2023/10/31 18:04:23;;;;;;;;;45.00;38.00;;;;;;;;6489264;39;8868;-62
2023/10/31 18:10:25;;;;;;;;;46.67;37.67;;;;;;;;6489912;39;8911;-62
2023/10/31 18:16:28;;;;;;;;;42.67;37.00;;;;;;;;6489573;39;8894;-62
2023/10/31 18:22:32;;;;;;;;;36.00;34.00;;;;;;;;6490220;39;9443;-62
2023/10/31 18:28:36;;;;;;;;;43.33;36.33;;;;;;;;6489457;39;9524;-61
2023/10/31 18:34:38;;;;;;;;;34.33;32.33;;;;;;;;6489755;39;8844;-61
2023/10/31 18:40:41;;;;;;;;;40.33;33.67;;;;;;;;6488643;47;8895;-62
2023/10/31 18:46:43;;;;;;;;;46.67;38.67;;;;;;;;6489500;39;8899;-61
2023/10/31 18:52:46;;;;;;;;;43.67;38.00;;;;;;;;6489056;46;8880;-60
2023/10/31 18:58:49;;;;;;;;;50.33;39.67;;;;;;;;6491300;46;8958;-64
2023/10/31 19:05:04;;;;;;;;;49.33;39.00;;;;;;;;6491109;46;8904;-60
2023/10/31 19:11:06;;;;;;;;;44.00;38.33;;;;;;;;6490247;46;8919;-62
2023/10/31 19:17:11;;;;;;;;;50.00;41.67;;;;;;;;6490881;31;8860;-62
2023/10/31 19:23:14;;;;;;;;;45.67;40.33;;;;;;;;6490070;46;8986;-61
2023/10/31 19:29:16;;;;;;;;;42.67;38.00;;;;;;;;6310685;39;10000779;-62
2023/10/31 19:35:23;;;;;;;;;45.33;40.67;;;;;;;;6491751;39;8879;-63
2023/10/31 19:41:25;;;;;;;;;47.00;39.33;;;;;;;;6491196;46;8844;-61
2023/10/31 19:47:28;;;;;;;;;50.67;42.33;;;;;;;;6491414;31;9447;-61
2023/10/31 19:53:30;;;;;;;;;52.33;40.33;;;;;;;;6491361;39;8916;-61
2023/10/31 19:59:33;;;;;;;;;50.00;40.67;;;;;;;;6490553;39;8875;-60
2023/10/31 20:05:37;;;;;;;;;48.33;39.67;;;;;;;;6490888;39;8865;-62
2023/10/31 20:11:44;;;;;;;;;44.00;38.67;;;;;;;;6491776;39;9005;-62
2023/10/31 20:17:48;;;;;;;;;41.67;37.33;;;;;;;;6490697;46;8872;-62
2023/10/31 20:23:50;;;;;;;;;53.00;41.33;;;;;;;;6490530;39;8910;-62
2023/10/31 20:29:53;;;;;;;;;51.33;39.00;;;;;;;;6490143;39;8915;-62
2023/10/31 20:35:55;;;;;;;;;44.33;38.67;;;;;;;;6490751;39;8876;-60
2023/10/31 20:41:57;;;;;;;;;49.33;40.33;;;;;;;;6490702;39;8860;-61
2023/10/31 20:48:00;;;;;;;;;52.67;41.33;;;;;;;;6491181;31;8934;-61
2023/10/31 20:54:02;;;;;;;;;44.00;39.00;;;;;;;;6490974;39;8885;-61
2023/10/31 21:00:08;;;;;;;;;52.33;43.00;;;;;;;;6490495;31;8950;-61
2023/10/31 21:06:10;;;;;;;;;48.00;41.00;;;;;;;;6489859;39;9640;-60
2023/10/31 21:12:12;;;;;;;;;50.67;42.33;;;;;;;;6490667;39;8891;-61
2023/10/31 21:18:15;;;;;;;;;40.67;36.00;;;;;;;;6490389;39;8852;-61
2023/10/31 21:24:17;;;;;;;;;49.00;39.67;;;;;;;;6489849;39;8903;-60
2023/10/31 21:30:22;;;;;;;;;43.00;38.33;;;;;;;;6490002;39;8880;-61
2023/10/31 21:36:24;;;;;;;;;50.33;42.33;;;;;;;;6489721;46;8930;-61
2023/10/31 21:42:26;;;;;;;;;51.00;42.67;;;;;;;;6488972;46;8955;-60
2023/10/31 21:48:29;;;;;;;;;53.67;42.67;;;;;;;;6489891;39;8883;-62
2023/10/31 21:54:32;;;;;;;;;52.67;44.00;;;;;;;;6489113;31;8897;-60
2023/10/31 22:00:34;;;;;;;;;56.67;47.33;;;;;;;;6490112;39;8950;-61
2023/10/31 22:06:37;;;;;;;;;61.75;48.00;;;;;;;;6488650;39;8908;-61
2023/10/31 22:12:39;;;;;;;;;56.50;47.75;;;;;;;;6490057;39;9135;-61
2023/10/31 22:18:43;;;;;;;;;54.67;45.33;;;;;;;;6490662;39;8853;-61
2023/10/31 22:24:46;;;;;;;;;57.00;46.75;;;;;;;;6489056;46;8947;-61
2023/10/31 22:30:49;;;;;;;;;65.25;52.25;;;;;;;;6488196;46;8876;-61
2023/10/31 22:36:54;;;;;;;;;67.25;53.00;;;;;;;;6490413;31;9003;-61
2023/10/31 22:42:56;;;;;;;;;67.50;51.50;;;;;;;;6489066;39;9577;-59
2023/10/31 22:48:58;;;;;;;;;61.75;50.75;;;;;;;;6490399;39;8855;-61
2023/10/31 22:55:00;;;;;;;;;58.50;46.00;;;;;;;;6489236;39;8901;-61
2023/10/31 23:01:05;;;;;;;;;61.75;50.25;;;;;;;;6489193;39;8855;-60
2023/10/31 23:07:08;;;;;;;;;58.25;47.25;;;;;;;;6489868;31;8916;-61
2023/10/31 23:13:10;;;;;;;;;62.00;50.00;;;;;;;;6489882;31;9023;-60
2023/10/31 23:19:13;;;;;;;;;60.50;47.50;;;;;;;;6489087;39;8876;-61
2023/10/31 23:25:16;;;;;;;;;55.25;45.75;;;;;;;;6489581;31;9456;-60
2023/10/31 23:31:19;;;;;;;;;59.75;47.50;;;;;;;;6490044;31;9069;-60
2023/10/31 23:37:22;;;;;;;;;57.00;44.75;;;;;;;;6488759;39;8907;-61
2023/10/31 23:43:25;;;;;;;;;63.50;50.50;;;;;;;;6490788;46;8911;-61
2023/10/31 23:49:28;;;;;;;;;55.50;44.75;;;;;;;;6490513;46;8917;-61
2023/10/31 23:55:30;;;;;;;;;64.00;50.25;;;;;;;;6490426;46;8920;-61
